KSBA/SBA METAR and TAF weather

Enter ICAO airport designator
Station Type Date Time Source
KSBA METAR 2022/06/26 07:53 UTC NOAA

KSBA 260753Z AUTO 08004KT 7SM CLR 16/14 A2992 RMK AO2 SLP132 T01560139 402110144 $


Station Type Date Time Source
KSBA Decoded METAR 2022/06/26 07:53 UTC NOAA

SANTA BARBARA MUNICIPAL, CA, United States (KSBA) 34-26N 119-51W 3M
Jun 26, 2022 - 03:53 AM EDT / 2022.06.26 0753 UTC
Wind: from the E (080 degrees) at 5 MPH (4 KT):0
Visibility: 7 mile(s):0
Sky conditions: clear
Temperature: 60.1 F (15.6 C)
Dew Point: 57.0 F (13.9 C)
Relative Humidity: 89%
Pressure (altimeter): 29.92 in. Hg (1013 hPa)
ob: KSBA 260753Z AUTO 08004KT 7SM CLR 16/14 A2992 RMK AO2 SLP132 T01560139 402110144
cycle: 8

Station Type Date Time Source
KSBA TAF 2022/06/26 06:24 UTC NOAA

TAF KSBA 260520Z 2606/2706 VRB03KT P6SM SKC
FM261000 11006KT 2SM BR OVC003
FM261500 VRB03KT 4SM BR BKN004
FM261700 17006KT P6SM SCT006
FM262000 21008KT P6SM SKC
FM270300 VRB03KT P6SM SKC

Example: see airport list